Time;durP1;ratioP1;P1;durP2;ratioP2;P2;SDS_P1;SDS_P2;PMS_P1;PMS_P2;Temp;Humidity;BMP_temperature;BMP_pressure;BME280_temperature;BME280_humidity;BME280_pressure;Samples;Min_cycle;Max_cycle;Signal;HPM_P1;HPM_P2
2022/04/11 00:02:17;;;;;;;5.80;5.20;;;8.70;95.30;;;;;;4879245;29;20076;-83
2022/04/11 00:04:44;;;;;;;6.30;5.70;;;8.70;95.60;;;;;;4879061;29;20084;-79
2022/04/11 00:07:11;;;;;;;7.07;5.85;;;8.80;96.00;;;;;;4863283;29;20060;-84
2022/04/11 00:09:39;;;;;;;6.22;5.05;;;8.80;95.90;;;;;;4879950;29;20049;-81
2022/04/11 00:12:07;;;;;;;6.45;5.55;;;8.70;95.60;;;;;;4862694;29;20053;-81
2022/04/11 00:14:34;;;;;;;7.05;5.70;;;8.60;95.10;;;;;;4848947;29;20052;-79
2022/04/11 00:17:02;;;;;;;6.50;5.65;;;8.60;95.20;;;;;;4880083;29;20048;-85
2022/04/11 00:19:29;;;;;;;10.05;5.45;;;8.70;95.00;;;;;;4863368;29;20044;-80
2022/04/11 00:21:57;;;;;;;6.38;5.63;;;8.60;95.50;;;;;;4879621;29;20401;-80
2022/04/11 00:24:24;;;;;;;6.57;5.85;;;8.60;95.10;;;;;;4880238;29;20044;-79
2022/04/11 00:26:51;;;;;;;8.65;5.70;;;8.70;95.00;;;;;;4878573;29;20059;-79
2022/04/11 00:29:18;;;;;;;6.40;5.30;;;8.80;94.60;;;;;;4880181;29;20053;-83
2022/04/11 00:31:45;;;;;;;5.20;4.68;;;8.80;94.30;;;;;;4863378;29;20430;-77
2022/04/11 00:34:13;;;;;;;5.85;5.15;;;8.60;93.70;;;;;;4879876;29;20048;-78
2022/04/11 00:36:40;;;;;;;6.47;5.07;;;8.70;94.20;;;;;;4879962;29;20049;-81
2022/04/11 00:39:07;;;;;;;6.25;5.28;;;8.80;93.20;;;;;;4879868;29;20565;-81
2022/04/11 00:41:35;;;;;;;5.93;5.03;;;8.80;93.60;;;;;;4863082;29;20080;-79
2022/04/11 00:44:04;;;;;;;7.05;5.55;;;8.70;93.00;;;;;;4863432;29;20063;-82
2022/04/11 00:46:31;;;;;;;5.90;5.22;;;8.60;93.30;;;;;;4880043;29;20049;-77
2022/04/11 00:48:59;;;;;;;6.20;5.60;;;8.70;93.20;;;;;;4879685;29;20076;-81
2022/04/11 00:51:26;;;;;;;5.57;5.07;;;8.80;93.00;;;;;;4863168;29;20052;-79
2022/04/11 00:53:58;;;;;;;6.38;5.35;;;8.70;92.70;;;;;;4877788;29;20568;-79
2022/04/11 00:56:28;;;;;;;6.55;5.20;;;8.60;92.40;;;;;;4863066;29;20041;-82
2022/04/11 00:59:00;;;;;;;8.48;5.60;;;8.60;92.20;;;;;;4883921;29;20483;-75
2022/04/11 01:01:28;;;;;;;7.32;5.32;;;8.60;92.50;;;;;;4916334;29;20051;-77
2022/04/11 01:03:56;;;;;;;5.88;4.80;;;8.60;91.70;;;;;;4916081;29;20429;-85
2022/04/11 01:06:24;;;;;;;8.00;5.32;;;8.50;92.00;;;;;;4883687;29;20055;-81
2022/04/11 01:08:52;;;;;;;7.65;5.00;;;8.50;92.50;;;;;;4883345;29;20520;-80
2022/04/11 01:11:20;;;;;;;7.38;5.32;;;8.50;92.00;;;;;;4899106;29;20494;-79
2022/04/11 01:13:47;;;;;;;5.85;5.22;;;8.70;92.40;;;;;;4915996;29;20040;-80
2022/04/11 01:16:25;;;;;;;11.65;5.78;;;8.60;92.80;;;;;;4914832;29;20087;-77
2022/04/11 01:18:52;;;;;;;6.53;5.10;;;8.40;92.00;;;;;;4916294;29;20374;-78
2022/04/11 01:21:20;;;;;;;5.97;5.38;;;8.60;91.90;;;;;;4900069;29;20064;-76
2022/04/11 01:23:47;;;;;;;6.35;5.63;;;8.60;92.50;;;;;;4899128;29;20051;-77
2022/04/11 01:26:15;;;;;;;6.97;5.60;;;8.70;91.90;;;;;;4884272;29;20071;-78
2022/04/11 01:28:44;;;;;;;5.55;5.03;;;8.70;91.80;;;;;;4916492;29;20107;-78
2022/04/11 01:31:11;;;;;;;7.28;5.53;;;8.60;91.40;;;;;;4899225;29;20048;-76
2022/04/11 01:33:38;;;;;;;6.07;5.47;;;8.30;92.30;;;;;;4916316;29;20515;-75
2022/04/11 01:36:06;;;;;;;5.53;4.93;;;8.50;92.90;;;;;;4916373;29;20043;-78
2022/04/11 01:38:33;;;;;;;5.50;4.88;;;8.40;92.40;;;;;;4915973;29;20499;-78
2022/04/11 01:41:00;;;;;;;6.22;5.45;;;8.30;92.70;;;;;;4899478;29;20063;-80
2022/04/11 01:43:28;;;;;;;6.47;5.82;;;8.40;93.20;;;;;;4899262;29;20548;-77
2022/04/11 01:45:55;;;;;;;6.28;5.65;;;8.50;92.80;;;;;;4916245;29;20075;-81
2022/04/11 01:48:23;;;;;;;7.63;5.70;;;8.20;93.60;;;;;;4888338;29;20041;-81
2022/04/11 01:50:50;;;;;;;6.93;5.63;;;8.30;93.60;;;;;;4880704;29;20041;-80
2022/04/11 01:53:20;;;;;;;6.10;4.93;;;8.20;93.80;;;;;;4896836;29;20049;-75
2022/04/11 01:55:47;;;;;;;8.10;5.35;;;8.10;93.80;;;;;;4897027;29;20044;-75
2022/04/11 01:58:15;;;;;;;6.55;5.80;;;8.10;93.80;;;;;;4898806;29;20396;-78
2022/04/11 02:00:43;;;;;;;6.03;4.72;;;8.30;93.30;;;;;;4899234;29;20052;-78
2022/04/11 02:03:11;;;;;;;8.65;6.07;;;8.30;92.50;;;;;;4898643;29;20062;-79
2022/04/11 02:05:42;;;;;;;8.10;4.47;;;8.40;92.50;;;;;;4915555;29;20385;-78
2022/04/11 02:08:10;;;;;;;6.68;4.95;;;8.20;91.90;;;;;;4915813;29;20058;-76
2022/04/11 02:10:39;;;;;;;5.63;4.95;;;8.20;92.50;;;;;;4901678;29;20101;-79
2022/04/11 02:13:06;;;;;;;6.88;5.50;;;8.30;92.10;;;;;;4896341;29;20043;-78
2022/04/11 02:15:35;;;;;;;6.65;5.97;;;8.30;92.40;;;;;;4896929;29;20101;-79
2022/04/11 02:18:02;;;;;;;6.60;5.30;;;8.20;92.20;;;;;;4896176;29;20037;-75
2022/04/11 02:20:30;;;;;;;6.63;5.70;;;8.30;91.60;;;;;;4896967;29;20056;-79
2022/04/11 02:22:59;;;;;;;6.60;5.35;;;8.30;91.20;;;;;;4880061;29;20052;-79
2022/04/11 02:25:28;;;;;;;7.80;5.20;;;8.30;91.40;;;;;;4895474;29;20412;-80
2022/04/11 02:27:57;;;;;;;6.72;5.38;;;8.20;91.00;;;;;;4896901;29;20527;-76
2022/04/11 02:30:25;;;;;;;6.00;5.40;;;8.20;91.30;;;;;;4896909;29;20048;-77
2022/04/11 02:32:53;;;;;;;6.75;5.35;;;8.10;90.70;;;;;;4864825;29;20049;-76
2022/04/11 02:35:21;;;;;;;6.45;5.32;;;8.20;90.30;;;;;;4896945;29;20477;-77
2022/04/11 02:37:48;;;;;;;7.10;5.40;;;8.20;90.40;;;;;;4896871;29;20044;-77
2022/04/11 02:40:16;;;;;;;6.13;4.90;;;8.30;88.70;;;;;;4897007;29;20033;-74
2022/04/11 02:42:45;;;;;;;5.93;5.15;;;8.30;89.10;;;;;;4896029;29;20417;-78
2022/04/11 02:45:14;;;;;;;6.50;5.10;;;8.30;88.10;;;;;;4896304;29;20067;-75
2022/04/11 02:47:42;;;;;;;8.48;5.30;;;8.30;86.20;;;;;;4895196;29;20040;-81
2022/04/11 02:50:09;;;;;;;8.98;4.80;;;8.20;85.60;;;;;;4879486;29;20052;-80
2022/04/11 02:52:37;;;;;;;7.65;5.03;;;8.00;85.10;;;;;;4896433;29;20043;-79
2022/04/11 02:55:05;;;;;;;5.90;5.20;;;8.00;84.50;;;;;;4879780;29;20055;-76
2022/04/11 02:57:32;;;;;;;6.00;5.20;;;8.10;84.20;;;;;;4896695;29;20070;-80
2022/04/11 02:59:59;;;;;;;6.50;5.45;;;8.00;84.70;;;;;;4911757;29;20048;-74
2022/04/11 03:02:28;;;;;;;5.55;5.05;;;8.10;84.40;;;;;;4898277;29;20568;-78
2022/04/11 03:04:55;;;;;;;7.32;5.07;;;8.00;84.10;;;;;;4898595;29;20059;-75
2022/04/11 03:07:23;;;;;;;5.35;4.38;;;8.10;83.80;;;;;;4915361;29;20047;-75
2022/04/11 03:09:50;;;;;;;6.75;5.10;;;7.80;83.30;;;;;;4898512;29;20063;-76
2022/04/11 03:12:17;;;;;;;5.28;4.70;;;7.90;83.40;;;;;;4914936;29;20060;-76
2022/04/11 03:14:44;;;;;;;6.57;5.13;;;8.00;83.10;;;;;;4914427;29;20049;-78
2022/04/11 03:17:12;;;;;;;6.78;4.75;;;8.00;83.10;;;;;;4916409;29;20046;-75
2022/04/11 03:19:39;;;;;;;5.78;5.00;;;8.10;82.40;;;;;;4918695;29;20082;-75
2022/04/11 03:22:06;;;;;;;12.98;4.97;;;8.00;81.90;;;;;;4901916;29;20040;-75
2022/04/11 03:24:34;;;;;;;6.60;5.15;;;7.90;82.00;;;;;;4917370;29;20055;-74
2022/04/11 03:27:01;;;;;;;7.70;5.35;;;7.90;82.60;;;;;;4918859;29;20048;-76
2022/04/11 03:29:28;;;;;;;6.30;4.75;;;7.90;82.70;;;;;;4902504;29;20044;-77
2022/04/11 03:31:56;;;;;;;7.35;5.18;;;7.80;82.40;;;;;;4918925;29;20056;-75
2022/04/11 03:34:23;;;;;;;7.20;5.07;;;7.90;82.40;;;;;;4886511;29;20086;-79
2022/04/11 03:36:53;;;;;;;8.10;5.10;;;7.80;82.80;;;;;;4886908;29;20399;-76
2022/04/11 03:39:20;;;;;;;9.32;4.82;;;7.80;83.30;;;;;;4901870;29;20051;-75
2022/04/11 03:41:48;;;;;;;5.57;4.93;;;7.80;82.90;;;;;;4917260;29;20411;-80
2022/04/11 03:44:16;;;;;;;8.48;5.22;;;7.80;82.90;;;;;;4901105;29;20063;-78
2022/04/11 03:46:43;;;;;;;6.43;5.35;;;7.90;82.90;;;;;;4901137;29;20040;-79
2022/04/11 03:49:10;;;;;;;7.45;4.85;;;7.80;83.00;;;;;;4918452;29;20052;-79
2022/04/11 03:51:37;;;;;;;8.07;5.38;;;7.80;82.20;;;;;;4901164;29;20052;-75
2022/04/11 03:54:05;;;;;;;6.22;4.82;;;7.90;83.40;;;;;;4900895;29;20063;-79
2022/04/11 03:56:32;;;;;;;6.88;5.30;;;7.80;82.90;;;;;;4918349;29;20047;-75
2022/04/11 03:58:59;;;;;;;6.25;5.13;;;7.70;83.20;;;;;;4886128;29;20050;-79
2022/04/11 04:01:26;;;;;;;8.73;5.15;;;7.80;83.90;;;;;;4917764;29;20385;-75
2022/04/11 04:03:54;;;;;;;6.13;5.05;;;7.70;84.00;;;;;;4901203;29;20047;-77
2022/04/11 04:06:21;;;;;;;7.03;5.13;;;7.80;83.90;;;;;;4897975;29;20059;-77
2022/04/11 04:08:48;;;;;;;5.97;4.80;;;7.80;83.80;;;;;;4899267;29;20051;-76
2022/04/11 04:11:16;;;;;;;5.75;4.88;;;7.60;84.80;;;;;;4899026;29;20049;-75
2022/04/11 04:13:43;;;;;;;5.97;4.85;;;7.60;83.90;;;;;;4882214;29;20041;-79
2022/04/11 04:16:10;;;;;;;6.28;4.88;;;7.70;84.20;;;;;;4898848;29;20435;-77
2022/04/11 04:18:38;;;;;;;5.88;4.82;;;7.80;84.10;;;;;;4882089;29;20044;-77
2022/04/11 04:21:05;;;;;;;5.90;4.93;;;7.80;84.20;;;;;;4882546;29;20049;-80
2022/04/11 04:23:32;;;;;;;5.93;5.28;;;7.60;83.80;;;;;;4881849;29;20409;-78
2022/04/11 04:26:00;;;;;;;5.88;5.28;;;7.60;84.80;;;;;;4882247;29;20067;-79
2022/04/11 04:28:27;;;;;;;6.68;4.97;;;7.60;84.20;;;;;;4897614;29;20048;-79
2022/04/11 04:30:54;;;;;;;6.15;5.03;;;7.70;84.30;;;;;;4898293;29;20123;-79
2022/04/11 04:33:22;;;;;;;6.93;5.10;;;7.80;83.30;;;;;;4898807;29;20400;-78
2022/04/11 04:35:49;;;;;;;6.18;5.00;;;7.70;82.80;;;;;;4882076;29;20153;-78
2022/04/11 04:38:17;;;;;;;6.97;4.78;;;7.80;82.60;;;;;;4881924;29;20048;-77
2022/04/11 04:40:44;;;;;;;5.15;4.60;;;7.80;82.00;;;;;;4876302;29;20128;-77
2022/04/11 04:43:11;;;;;;;6.68;4.97;;;7.80;80.60;;;;;;4876921;29;20069;-77
2022/04/11 04:45:38;;;;;;;6.13;5.10;;;7.80;80.40;;;;;;4878523;29;20466;-75
2022/04/11 04:48:09;;;;;;;;;;;7.80;80.70;;;;;;4878853;29;20402;-75
2022/04/11 04:50:36;;;;;;;6.35;4.90;;;7.80;79.60;;;;;;4861703;29;20392;-78
2022/04/11 04:53:03;;;;;;;8.32;5.22;;;7.80;79.70;;;;;;4861497;29;20425;-74
2022/04/11 04:55:31;;;;;;;5.75;4.93;;;7.90;78.80;;;;;;4861597;29;20041;-78
2022/04/11 04:57:58;;;;;;;6.47;4.55;;;7.80;78.70;;;;;;4878169;29;20088;-75
2022/04/11 05:00:25;;;;;;;5.45;4.45;;;7.80;78.30;;;;;;4862044;29;20053;-78
2022/04/11 05:02:53;;;;;;;11.40;8.43;;;7.90;79.40;;;;;;4862558;29;20421;-82
2022/04/11 05:05:20;;;;;;;51.83;28.55;;;7.90;79.50;;;;;;4867113;29;20053;-78
2022/04/11 05:07:47;;;;;;;8.75;7.20;;;8.00;79.10;;;;;;4898313;29;20044;-76
2022/04/11 05:10:15;;;;;;;41.35;24.27;;;8.00;78.00;;;;;;4880873;29;20045;-79
2022/04/11 05:12:44;;;;;;;58.20;33.08;;;8.10;78.20;;;;;;4897744;29;20040;-79
2022/04/11 05:15:13;;;;;;;18.15;13.77;;;8.10;78.20;;;;;;4880425;29;20448;-79
2022/04/11 05:17:40;;;;;;;80.53;41.40;;;8.10;77.60;;;;;;4880660;29;20044;-79
2022/04/11 05:20:09;;;;;;;7.72;6.93;;;8.00;78.30;;;;;;4881067;29;20045;-75
2022/04/11 05:22:36;;;;;;;7.60;5.10;;;8.00;77.00;;;;;;4897942;29;20048;-76
2022/04/11 05:25:04;;;;;;;6.60;4.78;;;7.70;78.60;;;;;;4897504;29;20045;-76
2022/04/11 05:27:32;;;;;;;5.82;4.70;;;7.80;78.30;;;;;;4897652;29;20049;-81
2022/04/11 05:29:59;;;;;;;7.57;4.97;;;7.80;77.90;;;;;;4880596;29;20064;-79
2022/04/11 05:32:26;;;;;;;7.28;4.65;;;7.70;78.70;;;;;;4896784;29;20160;-77
2022/04/11 05:34:54;;;;;;;8.30;4.80;;;7.50;79.40;;;;;;4880739;29;20045;-75
2022/04/11 05:37:21;;;;;;;6.88;4.72;;;7.70;78.70;;;;;;4879527;29;20139;-76
2022/04/11 05:39:48;;;;;;;6.22;4.78;;;7.80;77.40;;;;;;4880312;29;20044;-79
2022/04/11 05:42:15;;;;;;;12.90;8.93;;;7.90;76.80;;;;;;4897190;29;20040;-77
2022/04/11 05:44:42;;;;;;;6.15;5.40;;;8.00;77.50;;;;;;4896893;29;20405;-74
2022/04/11 05:47:11;;;;;;;5.97;4.70;;;8.20;77.10;;;;;;4880407;29;20446;-76
2022/04/11 05:49:39;;;;;;;6.00;4.50;;;7.90;77.50;;;;;;4896896;29;20421;-76
2022/04/11 05:52:08;;;;;;;11.15;5.28;;;7.80;77.80;;;;;;4895323;29;20043;-75
2022/04/11 05:54:38;;;;;;;5.40;4.78;;;8.10;78.10;;;;;;4878979;29;20408;-75
2022/04/11 05:57:05;;;;;;;;;;;7.80;78.30;;;;;;4895904;29;20048;-75
2022/04/11 05:59:32;;;;;;;5.97;4.57;;;7.90;78.60;;;;;;4896235;29;19923;-77
2022/04/11 06:02:00;;;;;;;5.75;4.50;;;8.10;78.40;;;;;;4895196;29;20040;-75
2022/04/11 06:04:27;;;;;;;8.35;4.95;;;7.90;78.20;;;;;;4895178;29;20227;-74
2022/04/11 06:06:54;;;;;;;8.95;5.32;;;8.00;78.40;;;;;;4893577;29;20068;-77
2022/04/11 06:09:22;;;;;;;7.13;5.10;;;8.10;78.30;;;;;;4877417;29;20072;-73
2022/04/11 06:11:49;;;;;;;9.50;5.35;;;8.10;78.10;;;;;;4877172;29;20064;-73
2022/04/11 06:14:16;;;;;;;8.18;5.22;;;8.00;77.40;;;;;;4876476;29;20493;-74
2022/04/11 06:16:44;;;;;;;7.10;4.90;;;8.10;77.40;;;;;;4876953;29;20079;-74
2022/04/11 06:19:11;;;;;;;10.20;5.30;;;8.30;77.00;;;;;;4890260;29;20096;-75
2022/04/11 06:21:38;;;;;;;6.78;5.30;;;8.40;76.90;;;;;;4894864;29;20041;-75
2022/04/11 06:24:06;;;;;;;6.45;4.70;;;8.30;77.50;;;;;;4895016;29;20049;-72
2022/04/11 06:26:33;;;;;;;5.55;4.75;;;8.20;77.90;;;;;;4895220;29;20151;-77
2022/04/11 06:29:01;;;;;;;8.43;5.00;;;8.30;76.60;;;;;;4895261;29;20044;-74
2022/04/11 06:31:28;;;;;;;5.22;4.53;;;8.40;75.10;;;;;;4894547;29;20475;-75
2022/04/11 06:33:56;;;;;;;7.50;4.70;;;8.30;74.60;;;;;;4877989;29;20041;-74
2022/04/11 06:36:23;;;;;;;7.35;4.90;;;8.40;75.50;;;;;;4894499;29;20036;-72
2022/04/11 06:38:50;;;;;;;7.68;4.93;;;8.50;74.60;;;;;;4876204;29;20047;-72
2022/04/11 06:41:18;;;;;;;7.75;5.13;;;8.60;75.30;;;;;;4894407;29;20044;-73
2022/04/11 06:43:45;;;;;;;7.80;4.65;;;8.60;74.60;;;;;;4877283;29;20139;-73
2022/04/11 06:46:12;;;;;;;5.85;4.53;;;8.50;74.20;;;;;;4878155;29;20056;-76
2022/04/11 06:48:40;;;;;;;9.30;4.43;;;8.50;73.10;;;;;;4893884;29;20041;-75
2022/04/11 06:51:07;;;;;;;8.07;4.78;;;8.60;74.50;;;;;;4876298;29;20044;-80
2022/04/11 06:53:34;;;;;;;8.60;5.47;;;8.30;74.30;;;;;;4876882;29;20049;-79
2022/04/11 06:56:02;;;;;;;6.70;5.10;;;8.50;74.40;;;;;;4893940;29;20497;-77
2022/04/11 06:58:30;;;;;;;7.13;4.60;;;8.50;74.60;;;;;;4876600;29;20497;-74
2022/04/11 07:00:57;;;;;;;10.45;4.57;;;8.60;74.30;;;;;;4861969;29;20044;-76
2022/04/11 07:03:24;;;;;;;8.15;4.40;;;8.70;74.20;;;;;;4892731;29;20132;-77
2022/04/11 07:05:52;;;;;;;6.78;4.80;;;8.70;73.70;;;;;;4891354;29;20056;-79
2022/04/11 07:08:19;;;;;;;8.18;4.60;;;8.80;73.40;;;;;;4861256;29;20331;-75
2022/04/11 07:10:47;;;;;;;7.97;4.60;;;8.70;73.40;;;;;;4876989;29;20556;-76
2022/04/11 07:13:15;;;;;;;8.48;4.60;;;8.90;73.70;;;;;;4875701;29;20045;-74
2022/04/11 07:15:42;;;;;;;5.53;4.93;;;8.90;72.70;;;;;;4876195;29;20120;-75
2022/04/11 07:18:10;;;;;;;7.05;4.53;;;9.00;70.70;;;;;;4894213;29;20052;-78
2022/04/11 07:20:38;;;;;;;6.03;4.75;;;9.00;71.90;;;;;;4894659;29;20036;-77
2022/04/11 07:23:06;;;;;;;8.77;4.10;;;9.00;71.40;;;;;;4876496;29;20044;-76
2022/04/11 07:25:33;;;;;;;4.47;3.95;;;9.00;70.90;;;;;;4893235;29;20128;-75
2022/04/11 07:28:01;;;;;;;8.15;4.07;;;9.00;69.90;;;;;;4877017;29;20060;-74
2022/04/11 07:30:28;;;;;;;4.90;4.05;;;9.10;70.10;;;;;;4862767;29;20053;-74
2022/04/11 07:32:55;;;;;;;6.55;4.05;;;9.10;69.00;;;;;;4877898;29;20232;-77
2022/04/11 07:35:22;;;;;;;6.13;4.82;;;9.20;69.60;;;;;;4866486;29;20519;-74
2022/04/11 07:37:50;;;;;;;6.28;4.10;;;9.20;69.30;;;;;;4889506;29;20444;-74
2022/04/11 07:40:17;;;;;;;7.05;4.25;;;9.30;68.40;;;;;;4874978;29;20048;-75
2022/04/11 07:42:44;;;;;;;8.38;4.18;;;9.20;67.90;;;;;;4869297;29;20322;-77
2022/04/11 07:45:11;;;;;;;6.00;3.90;;;9.20;68.80;;;;;;4878017;29;20381;-76
2022/04/11 07:47:39;;;;;;;7.35;4.03;;;9.30;69.60;;;;;;4878816;29;20040;-76
2022/04/11 07:50:07;;;;;;;8.48;4.30;;;9.40;69.50;;;;;;4881515;29;20044;-75
2022/04/11 07:52:40;;;;;;;7.85;3.90;;;9.40;68.00;;;;;;4882413;29;20496;-75
2022/04/11 07:55:09;;;;;;;6.18;3.92;;;9.50;70.10;;;;;;4863708;29;20079;-77
2022/04/11 07:57:37;;;;;;;6.50;3.85;;;9.50;69.50;;;;;;4878924;29;20040;-75
2022/04/11 08:00:20;;;;;;;5.95;3.92;;;9.60;69.20;;;;;;4884955;29;20481;-76
2022/04/11 08:02:55;;;;;;;7.78;4.20;;;9.70;67.40;;;;;;4898098;29;20060;-75
2022/04/11 08:05:23;;;;;;;6.43;4.00;;;9.60;65.60;;;;;;4895905;29;20087;-76
2022/04/11 08:07:52;;;;;;;4.95;3.55;;;9.60;65.60;;;;;;4872570;29;20052;-75
2022/04/11 08:10:21;;;;;;;4.60;3.67;;;9.50;66.00;;;;;;4879515;29;20067;-75
2022/04/11 08:12:57;;;;;;;6.17;3.90;;;9.40;65.80;;;;;;4881949;29;20049;-74
2022/04/11 08:15:27;;;;;;;11.13;4.32;;;9.40;65.90;;;;;;4877962;29;20733;-74
2022/04/11 08:17:56;;;;;;;4.77;3.73;;;9.60;67.40;;;;;;4887201;29;20033;-74
2022/04/11 08:20:25;;;;;;;4.63;3.90;;;9.70;66.30;;;;;;4882630;29;20049;-75
2022/04/11 08:22:53;;;;;;;7.00;4.03;;;9.70;65.50;;;;;;4879782;29;20060;-76
2022/04/11 08:25:20;;;;;;;6.10;3.78;;;9.80;64.30;;;;;;4878613;29;20061;-74
2022/04/11 08:27:48;;;;;;;6.30;4.20;;;10.00;64.30;;;;;;4875167;29;20553;-75
2022/04/11 08:30:15;;;;;;;5.00;3.67;;;10.10;63.00;;;;;;4898046;29;20123;-74
2022/04/11 08:32:48;;;;;;;9.77;3.88;;;10.20;65.30;;;;;;4881008;29;20135;-76
2022/04/11 08:35:18;;;;;;;5.05;3.75;;;10.30;64.60;;;;;;4867354;29;20048;-76
2022/04/11 08:37:45;;;;;;;6.32;4.05;;;10.50;63.70;;;;;;4870342;29;20041;-74
2022/04/11 08:40:14;;;;;;;5.05;3.75;;;10.60;63.80;;;;;;4872068;29;20080;-72
2022/04/11 08:42:44;;;;;;;4.50;3.75;;;10.60;61.50;;;;;;4888080;29;20041;-73
2022/04/11 08:45:16;;;;;;;4.97;3.53;;;10.60;61.70;;;;;;4872143;29;20056;-73
2022/04/11 08:47:45;;;;;;;4.40;3.50;;;10.70;61.90;;;;;;4871185;29;20044;-74
2022/04/11 08:50:13;;;;;;;9.27;3.90;;;10.80;61.30;;;;;;4863293;29;20059;-73
2022/04/11 08:52:41;;;;;;;13.82;4.07;;;10.80;61.90;;;;;;4879290;29;20045;-75
2022/04/11 08:55:10;;;;;;;5.65;3.33;;;10.90;60.80;;;;;;4865182;29;20045;-75
2022/04/11 08:57:38;;;;;;;5.00;4.00;;;10.90;60.30;;;;;;4886599;29;20054;-74
2022/04/11 09:00:11;;;;;;;4.45;3.70;;;10.90;60.70;;;;;;4881468;29;20032;-75
2022/04/11 09:02:40;;;;;;;6.78;3.90;;;11.00;60.20;;;;;;4870412;29;20188;-76
2022/04/11 09:05:07;;;;;;;6.03;3.58;;;10.90;59.70;;;;;;4859066;29;20058;-76
2022/04/11 09:07:51;;;;;;;4.57;3.35;;;10.90;60.40;;;;;;4844164;29;20049;-73
2022/04/11 09:10:22;;;;;;;5.57;3.50;;;11.00;61.10;;;;;;4828807;29;20055;-73
2022/04/11 09:12:57;;;;;;;6.45;3.35;;;10.90;60.10;;;;;;4871527;29;20069;-72
2022/04/11 09:15:42;;;;;;;4.13;3.30;;;11.00;61.60;;;;;;4875244;29;20045;-75
2022/04/11 09:18:09;;;;;;;6.70;3.72;;;11.00;60.60;;;;;;4854763;29;20161;-74
2022/04/11 09:20:41;;;;;;;7.00;3.85;;;11.10;61.40;;;;;;4855140;29;20490;-74
2022/04/11 09:23:20;;;;;;;7.65;4.20;;;11.20;61.60;;;;;;4878697;29;20409;-75
2022/04/11 09:25:48;;;;;;;7.40;4.05;;;11.20;60.20;;;;;;4868460;29;20055;-74
2022/04/11 09:28:16;;;;;;;6.30;3.90;;;11.30;60.20;;;;;;4843811;29;20056;-76
2022/04/11 09:30:46;;;;;;;4.50;3.67;;;11.40;59.60;;;;;;4861481;29;20421;-79
2022/04/11 09:33:23;;;;;;;;;;;;;;;;;;;;;
2022/04/11 09:36:00;;;;;;;6.75;4.20;;;11.40;59.10;;;;;;4860396;29;20053;-75
2022/04/11 09:38:29;;;;;;;;;;;11.60;60.60;;;;;;4870350;29;20055;-76
2022/04/11 09:40:56;;;;;;;8.18;3.80;;;11.80;65.70;;;;;;4859447;29;20303;-76
2022/04/11 09:43:31;;;;;;;6.07;4.40;;;12.00;64.40;;;;;;4867326;29;20405;-76
2022/04/11 09:46:01;;;;;;;5.93;3.90;;;12.10;62.90;;;;;;4867882;29;20124;-74
2022/04/11 09:48:32;;;;;;;4.80;3.50;;;12.10;69.30;;;;;;4868126;29;20405;-75
2022/04/11 09:51:00;;;;;;;6.07;3.60;;;12.00;60.90;;;;;;4852998;29;20656;-75
2022/04/11 09:53:33;;;;;;;5.40;3.47;;;11.90;60.60;;;;;;4872232;29;20092;-75
2022/04/11 09:56:04;;;;;;;4.85;3.45;;;11.80;63.40;;;;;;4862343;29;20053;-76
2022/04/11 09:58:35;;;;;;;9.75;4.65;;;11.90;60.10;;;;;;4868073;29;20499;-75
2022/04/11 10:01:04;;;;;;;5.60;3.20;;;12.00;62.00;;;;;;4871921;29;20064;-79
2022/04/11 10:03:32;;;;;;;12.13;3.80;;;12.20;60.70;;;;;;4863441;29;20661;-80
2022/04/11 10:06:02;;;;;;;8.90;4.07;;;12.30;64.50;;;;;;4856086;29;20466;-78
2022/04/11 10:08:31;;;;;;;5.45;3.67;;;12.60;62.50;;;;;;4888865;29;20060;-74
2022/04/11 10:11:00;;;;;;;8.15;3.60;;;12.70;65.00;;;;;;4874077;29;20044;-77
2022/04/11 10:13:29;;;;;;;5.97;3.20;;;12.70;63.40;;;;;;4888788;29;20055;-75
2022/04/11 10:15:58;;;;;;;7.03;3.23;;;12.70;57.30;;;;;;4853036;29;20048;-74
2022/04/11 10:18:27;;;;;;;5.78;3.20;;;12.60;61.10;;;;;;4885403;29;20052;-73
2022/04/11 10:21:02;;;;;;;7.32;3.47;;;12.70;60.30;;;;;;4871002;29;20094;-74
2022/04/11 10:24:15;;;;;;;5.28;3.17;;;12.90;58.80;;;;;;4863532;29;20256;-74
2022/04/11 10:26:45;;;;;;;4.57;3.00;;;12.80;58.00;;;;;;4860428;29;20072;-74
2022/04/11 10:29:34;;;;;;;8.30;3.63;;;12.80;59.20;;;;;;4889389;29;20032;-75
2022/04/11 10:32:07;;;;;;;4.38;2.53;;;12.80;58.80;;;;;;4899234;29;20462;-75
2022/04/11 10:34:47;;;;;;;6.82;3.40;;;12.10;55.20;;;;;;4870458;29;20119;-74
2022/04/11 10:37:16;;;;;;;11.15;4.80;;;12.00;59.30;;;;;;4869429;29;20049;-76
2022/04/11 10:39:45;;;;;;;7.43;4.10;;;12.40;59.10;;;;;;4854840;29;20127;-76
2022/04/11 10:42:16;;;;;;;13.63;4.90;;;12.50;61.70;;;;;;4866606;29;20478;-77
2022/04/11 10:44:50;;;;;;;6.35;3.75;;;12.70;59.10;;;;;;4865350;29;20561;-77
2022/04/11 10:47:29;;;;;;;5.68;3.58;;;12.80;58.30;;;;;;4882748;29;20478;-80
2022/04/11 10:50:01;;;;;;;7.65;3.90;;;12.90;58.80;;;;;;4882865;29;20120;-75
2022/04/11 10:52:32;;;;;;;5.75;3.10;;;13.10;60.30;;;;;;4893076;29;20052;-76
2022/04/11 10:55:06;;;;;;;;;;;13.20;56.70;;;;;;4909496;29;20068;-75
2022/04/11 10:57:43;;;;;;;4.15;3.38;;;12.90;58.50;;;;;;4895874;29;20283;-76
2022/04/11 11:00:18;;;;;;;6.78;3.20;;;12.50;55.70;;;;;;4902909;29;20040;-76
2022/04/11 11:02:54;;;;;;;10.63;4.07;;;12.70;56.80;;;;;;4879635;29;20056;-77
2022/04/11 11:05:29;;;;;;;5.75;3.00;;;12.90;56.90;;;;;;4876166;29;20060;-77
2022/04/11 11:08:09;;;;;;;6.22;3.13;;;13.10;58.30;;;;;;4878797;29;20048;-77
2022/04/11 11:10:48;;;;;;;9.15;3.92;;;13.30;58.30;;;;;;4879657;29;20059;-77
2022/04/11 11:13:43;;;;;;;8.13;4.00;;;13.50;58.50;;;;;;4879050;29;20052;-76
2022/04/11 11:16:10;;;;;;;8.32;3.30;;;13.60;56.40;;;;;;4895386;29;20100;-76
2022/04/11 11:21:37;;;;;;;4.90;2.95;;;13.70;56.10;;;;;;4879661;29;20100;-75
2022/04/11 11:24:08;;;;;;;5.63;3.50;;;13.70;54.50;;;;;;4887070;29;20412;-76
2022/04/11 11:26:48;;;;;;;6.95;3.35;;;13.70;54.60;;;;;;4894415;29;20489;-75
2022/04/11 11:29:17;;;;;;;4.20;2.80;;;13.90;56.60;;;;;;4864270;29;20056;-75
2022/04/11 11:31:45;;;;;;;6.97;3.35;;;14.20;55.20;;;;;;4894896;29;20419;-75
2022/04/11 11:34:28;;;;;;;5.07;2.80;;;14.20;55.40;;;;;;4877431;29;20049;-77
2022/04/11 11:37:03;;;;;;;5.22;3.13;;;14.20;55.50;;;;;;4862569;29;20096;-75
2022/04/11 11:39:35;;;;;;;7.65;4.43;;;14.30;53.10;;;;;;4897637;29;20045;-76
2022/04/11 11:42:14;;;;;;;3.35;2.60;;;14.40;55.30;;;;;;4866205;29;20057;-78
2022/04/11 11:44:58;;;;;;;4.10;2.83;;;14.50;53.60;;;;;;4898457;29;20119;-79
2022/04/11 11:47:30;;;;;;;5.00;3.00;;;14.60;53.60;;;;;;4883174;29;20045;-77
2022/04/11 11:50:07;;;;;;;8.18;3.08;;;14.70;54.40;;;;;;4899686;29;20063;-77
2022/04/11 11:52:38;;;;;;;4.55;3.30;;;14.80;53.00;;;;;;4866262;29;20056;-77
2022/04/11 11:55:06;;;;;;;4.65;2.70;;;14.80;51.40;;;;;;4897842;29;20479;-76
2022/04/11 11:57:34;;;;;;;3.70;2.70;;;14.80;50.40;;;;;;4866996;29;20416;-77
2022/04/11 12:00:07;;;;;;;6.25;3.03;;;14.80;51.10;;;;;;4903253;29;20032;-77
2022/04/11 12:05:24;;;;;;;5.65;2.70;;;15.10;50.50;;;;;;4901064;29;20060;-77
2022/04/11 12:08:02;;;;;;;2.25;1.80;;;15.30;53.00;;;;;;4885561;29;20064;-75
2022/04/11 12:10:30;;;;;;;6.07;2.13;;;15.20;49.40;;;;;;4918061;29;20100;-75
2022/04/11 12:12:57;;;;;;;5.05;2.08;;;15.30;49.00;;;;;;4900817;29;20070;-74
2022/04/11 12:15:30;;;;;;;5.70;1.70;;;15.50;48.90;;;;;;4885661;29;20590;-75
2022/04/11 12:18:03;;;;;;;3.17;1.50;;;15.60;47.70;;;;;;4917856;29;20044;-75
2022/04/11 12:20:33;;;;;;;3.72;1.75;;;15.70;48.60;;;;;;4917839;29;20072;-76
2022/04/11 12:23:15;;;;;;;3.50;2.00;;;15.80;47.10;;;;;;4884864;29;20055;-78
2022/04/11 12:25:50;;;;;;;3.30;1.90;;;15.80;47.60;;;;;;4900968;29;20047;-77
2022/04/11 12:28:20;;;;;;;4.13;1.73;;;15.80;47.00;;;;;;4917752;29;20063;-77
2022/04/11 12:31:02;;;;;;;5.82;2.20;;;15.80;49.00;;;;;;4917683;29;20040;-78
2022/04/11 12:33:34;;;;;;;3.65;1.98;;;15.90;49.00;;;;;;4885304;29;20343;-78
2022/04/11 12:36:12;;;;;;;3.55;2.05;;;15.90;48.40;;;;;;4885516;29;20457;-76
2022/04/11 12:38:51;;;;;;;3.47;1.90;;;16.10;50.50;;;;;;4900487;29;20051;-77
2022/04/11 12:41:36;;;;;;;6.35;2.50;;;16.00;48.80;;;;;;4900397;29;20044;-76
2022/04/11 12:44:10;;;;;;;3.20;2.10;;;16.00;49.10;;;;;;4885085;29;20412;-77
2022/04/11 12:46:39;;;;;;;3.65;2.00;;;16.20;50.50;;;;;;4884550;29;20052;-76
2022/04/11 12:49:08;;;;;;;6.13;2.42;;;16.30;47.90;;;;;;4899729;29;20055;-77
2022/04/11 12:51:37;;;;;;;3.30;2.05;;;16.10;47.70;;;;;;4916991;29;20044;-76
2022/04/11 12:54:07;;;;;;;3.75;2.33;;;16.10;47.10;;;;;;4917143;29;20032;-77
2022/04/11 12:56:43;;;;;;;3.00;2.00;;;16.30;47.90;;;;;;4900321;29;20050;-75
2022/04/11 12:59:25;;;;;;;3.63;2.15;;;16.20;47.70;;;;;;4917200;29;20041;-78
2022/04/11 13:01:58;;;;;;;4.75;2.42;;;16.30;46.70;;;;;;4900132;29;20041;-77
2022/04/11 13:04:25;;;;;;;5.32;2.80;;;16.00;46.30;;;;;;4881419;29;20809;-77
2022/04/11 13:06:53;;;;;;;6.75;3.20;;;16.40;47.20;;;;;;4877713;29;20061;-79
2022/04/11 13:09:22;;;;;;;5.68;2.58;;;16.50;46.80;;;;;;4879256;29;20498;-77
2022/04/11 13:11:51;;;;;;;5.75;2.72;;;16.70;47.00;;;;;;4878959;29;20053;-77
2022/04/11 13:14:32;;;;;;;3.50;2.08;;;16.80;46.30;;;;;;4879332;29;20124;-77